Aérodrome :
LOGIN :

S'inscrire | Disclaimer

   EN    FR    IT 

 










Légende :    VFR   VFR Marginal   IFR   IFR Intensif   IFR Très Intensif
Visi : 
Plafond : 
>= 8 km
>= 3000ft
5 à 8 km
1000 à 3000 ft
1500m à 5 km
500 à 1000 ft
800 à 1500m
200 à 500 ft
< 800m
< 200 ft
Symboles :   Orages  Brouillard  Fortes neiges  Fortes précipitations  Vent > 20 kt
SIGMETs :   Divers  Orages  Givrage  Turbulence  Onde Orograph.  Cendres Volcan.






- Altitude de l'aérodrome : 1058 ft
- Code IATA : SCN


EDDR - Saarbrücken

DERNIER METAR :
  • 140350Z 20003KT 140V270 9999 -SHRA VCTS FEW020 SCT060CB 18/17 Q1014 RESHRA TEMPO TSRA

METARs EXPIRÉS :
  • 140320Z 24005KT 170V310 9999 SHRA SCT060CB 18/17 Q1014
  • 140250Z 25005KT 9999 -SHRA FEW060CB 19/16 Q1014
  • 140220Z 27002KT 9999 VCSH FEW060CB 19/16 Q1014
  • 140150Z 29004KT CAVOK 19/16 Q1014
  • 140120Z VRB02KT CAVOK 20/16 Q1014

TAF TAF EDDR
Valide du 14 à 00h jusqu'au 15 à 00h UTC


132300Z 1400/1424 VRB03KT 9999 FEW045
TEMPO 1402/1410 24015G25KT 4000 TSRA BKN040CB
BECMG 1406/1409 23006KT
PROB40
TEMPO 1410/1414 SHRA BKN040CB



MET'MAP, la Météo Aéronautique d'un coup d'oeil ! - Copyright ORBIFLY Décembre 2007 - Disclaimer

ORBIFLY MET'MAP TEAM :

Programmation & Développement : Alexandra Zaïnal
Sur une idée originale de : Baudouin d'Aumeries
Assistance à la programmation : Marc-Olivier Méhu
Soutien technique & logistique : Manuel Goepfert

Contact : metmap@orbifly.com




SOURCES & CREDITS :

   NOAA